Time;durP1;ratioP1;P1;durP2;ratioP2;P2;SDS_P1;SDS_P2;PMS_P1;PMS_P2;Temp;Humidity;BMP_temperature;BMP_pressure;BME280_temperature;BME280_humidity;BME280_pressure;Samples;Min_cycle;Max_cycle;Signal;HPM_P1;HPM_P2
2021/03/06 00:00:25;;;;;;;106.07;67.93;;;256.20;1843.20;;;;;;4982808;28;20178;-89
2021/03/06 00:02:51;;;;;;;93.22;58.13;;;256.10;1817.60;;;;;;4993789;28;20044;-91
2021/03/06 00:05:19;;;;;;;77.38;50.35;;;256.00;1843.20;;;;;;4993828;28;20114;-91
2021/03/06 00:07:45;;;;;;;88.88;56.50;;;231.30;1868.80;;;;;;4994397;28;20456;-89
2021/03/06 00:10:13;;;;;;;96.35;59.95;;;256.50;1868.80;;;;;;4993822;28;20062;-90
2021/03/06 00:12:44;;;;;;;95.22;59.65;;;231.30;1868.80;;;;;;4993966;28;20033;-90
2021/03/06 00:15:13;;;;;;;94.15;57.65;;;256.00;1868.80;;;;;;4977664;28;20030;-91
2021/03/06 00:17:39;;;;;;;104.22;71.80;;;256.00;1868.80;;;;;;4997883;28;20364;-90
2021/03/06 00:20:07;;;;;;;92.15;61.17;;;256.10;1843.20;;;;;;4997656;28;20033;-90
2021/03/06 00:22:34;;;;;;;94.38;59.05;;;256.00;1868.80;;;;;;4998603;28;20030;-90
2021/03/06 00:25:01;;;;;;;107.32;63.00;;;231.30;1868.80;;;;;;5000938;28;20116;-90
2021/03/06 00:27:27;;;;;;;119.55;71.65;;;231.30;1868.80;;;;;;5000724;28;20026;-91
2021/03/06 00:29:53;;;;;;;106.20;65.25;;;231.30;1894.40;;;;;;5000608;28;20030;-91
2021/03/06 00:32:19;;;;;;;108.28;65.22;;;231.20;1868.80;;;;;;5000974;28;20030;-92
2021/03/06 00:34:44;;;;;;;112.53;65.15;;;231.30;1868.80;;;;;;5000815;28;20036;-90
2021/03/06 00:37:10;;;;;;;99.68;62.95;;;256.00;1868.80;;;;;;5000628;28;20159;-90
2021/03/06 00:39:36;;;;;;;93.13;59.13;;;231.30;1894.40;;;;;;5000634;28;20026;-92
2021/03/06 00:42:03;;;;;;;95.93;61.42;;;256.00;1868.80;;;;;;5000600;28;20092;-92
2021/03/06 00:44:29;;;;;;;95.40;59.15;;;256.10;1894.40;;;;;;5000788;28;20085;-90
2021/03/06 00:46:56;;;;;;;96.43;59.53;;;256.00;1868.80;;;;;;5000756;28;20058;-91
2021/03/06 00:49:23;;;;;;;95.57;59.03;;;256.10;1868.80;;;;;;5000700;28;20030;-90
2021/03/06 00:51:49;;;;;;;78.45;51.67;;;256.10;1894.40;;;;;;5000496;28;20030;-91
2021/03/06 00:54:15;;;;;;;50.78;33.47;;;256.20;1920.00;;;;;;5016963;28;20029;-91
2021/03/06 00:56:41;;;;;;;50.40;29.80;;;256.30;1971.20;;;;;;5001015;28;20026;-92
2021/03/06 00:59:07;;;;;;;45.92;28.92;;;256.30;1971.20;;;;;;5001438;28;20036;-89
2021/03/06 01:01:33;;;;;;;52.35;35.33;;;256.30;1971.20;;;;;;5002300;28;20095;-90
2021/03/06 01:03:58;;;;;;;53.30;36.80;;;256.30;2150.40;;;;;;5000132;28;20028;-87
2021/03/06 01:06:25;;;;;;;59.90;39.45;;;256.40;2201.60;;;;;;5000691;28;20033;-90
2021/03/06 01:08:51;;;;;;;54.03;38.97;;;256.30;2252.80;;;;;;4999983;28;20037;-92
2021/03/06 01:11:17;;;;;;;52.80;39.05;;;256.30;2252.80;;;;;;4999766;28;20117;-91
2021/03/06 01:13:43;;;;;;;51.60;36.88;;;256.40;2252.80;;;;;;5000096;28;20028;-92
2021/03/06 01:16:09;;;;;;;58.92;39.83;;;256.40;2227.20;;;;;;4999918;28;20018;-93
2021/03/06 01:18:35;;;;;;;52.50;37.85;;;256.40;2252.80;;;;;;4999818;28;20034;-92
2021/03/06 01:21:03;;;;;;;47.15;35.10;;;256.30;2252.80;;;;;;4996131;28;20026;-92
2021/03/06 01:23:30;;;;;;;49.30;35.83;;;256.40;2252.80;;;;;;4998426;28;20151;-93
2021/03/06 01:25:56;;;;;;;48.30;36.80;;;256.30;2252.80;;;;;;4999469;28;20030;-92
2021/03/06 01:28:22;;;;;;;37.13;30.08;;;256.40;2252.80;;;;;;4997891;28;20026;-94
2021/03/06 01:30:48;;;;;;;39.40;28.10;;;256.10;2252.80;;;;;;4999866;28;20117;-92
2021/03/06 01:33:16;;;;;;;34.42;28.08;;;231.30;2252.80;;;;;;5000049;28;20060;-92
2021/03/06 01:41:45;;;;;;;33.72;26.85;;;231.20;2252.80;;;;;;5002447;28;20115;-90
2021/03/06 01:45:25;;;;;;;34.88;28.23;;;231.10;2252.80;;;;;;4977119;28;20045;-91
2021/03/06 01:49:20;;;;;;;30.15;25.83;;;230.60;2252.80;;;;;;4937561;29;20032;-89
2021/03/06 02:09:40;;;;;;;28.15;22.27;;;230.40;2252.80;;;;;;4939625;29;20130;-86
2021/03/06 02:16:55;;;;;;;26.27;20.65;;;205.70;2252.80;;;;;;4938903;29;20103;-86
2021/03/06 02:24:07;;;;;;;25.25;21.05;;;205.70;2252.80;;;;;;4980484;28;20049;-87
2021/03/06 06:38:59;;;;;;;44.53;30.60;;;153.80;2252.80;;;;;;4186489;26;20034;-80
2021/03/06 06:45:38;;;;;;;18.35;12.35;;;154.00;2227.20;;;;;;5031706;28;20068;-77
2021/03/06 06:49:10;;;;;;;14.55;9.75;;;154.00;2201.60;;;;;;4997170;28;20038;-78
2021/03/06 06:51:37;;;;;;;35.42;19.60;;;153.70;2201.60;;;;;;4961890;28;20042;-78
2021/03/06 06:54:17;;;;;;;20.85;14.57;;;128.80;2227.20;;;;;;5013979;28;20025;-79
2021/03/06 06:57:07;;;;;;;26.95;17.00;;;154.00;2201.60;;;;;;5030183;28;20223;-77
2021/03/06 06:59:39;;;;;;;173.90;91.82;;;153.80;2176.00;;;;;;5028989;28;20026;-78
2021/03/06 07:02:14;;;;;;;55.45;35.00;;;153.70;2176.00;;;;;;5012825;28;20109;-78
2021/03/06 07:05:09;;;;;;;24.20;16.77;;;153.70;2150.40;;;;;;5030166;28;20093;-77
2021/03/06 07:07:44;;;;;;;19.23;12.40;;;128.90;2176.00;;;;;;5029064;28;20041;-79
2021/03/06 07:10:20;;;;;;;24.20;16.27;;;128.10;2252.80;;;;;;5013529;28;20038;-78
2021/03/06 07:13:11;;;;;;;23.02;14.88;;;128.60;2252.80;;;;;;5013381;28;20030;-78
2021/03/06 07:16:17;;;;;;;22.77;16.02;;;128.70;2252.80;;;;;;4996743;28;20098;-78
2021/03/06 07:19:17;;;;;;;62.35;34.67;;;128.80;2227.20;;;;;;5014971;28;20061;-79
2021/03/06 07:22:12;;;;;;;34.22;21.48;;;153.60;2201.60;;;;;;4992048;28;20042;-79
2021/03/06 07:24:47;;;;;;;35.75;23.83;;;153.80;2176.00;;;;;;5013160;28;20034;-78
2021/03/06 07:31:20;;;;;;;45.17;28.95;;;153.80;2176.00;;;;;;5035294;28;20021;-79
2021/03/06 07:34:19;;;;;;;39.60;27.55;;;154.00;2176.00;;;;;;5020064;28;20034;-79
2021/03/06 07:37:27;;;;;;;42.55;27.92;;;154.00;2150.40;;;;;;5015916;28;20033;-79
2021/03/06 07:40:25;;;;;;;18.77;11.90;;;154.10;2150.40;;;;;;4999996;28;20048;-78
2021/03/06 07:42:59;;;;;;;23.33;13.02;;;153.80;2124.80;;;;;;5030877;28;20033;-78
2021/03/06 07:45:28;;;;;;;31.17;14.38;;;153.90;2124.80;;;;;;5010597;28;20116;-77
2021/03/06 07:48:12;;;;;;;35.42;23.88;;;154.10;2150.40;;;;;;5011925;28;20057;-77
2021/03/06 07:50:40;;;;;;;28.00;18.83;;;154.20;2124.80;;;;;;5011851;28;20026;-76
2021/03/06 07:53:07;;;;;;;32.55;19.40;;;154.10;2099.20;;;;;;5009231;28;20026;-77
2021/03/06 07:55:34;;;;;;;33.40;19.90;;;179.40;2099.20;;;;;;5004750;28;20384;-77
2021/03/06 07:58:03;;;;;;;23.52;15.82;;;154.20;2073.60;;;;;;5004169;28;20030;-76
2021/03/06 08:00:58;;;;;;;21.92;14.45;;;154.40;2048.00;;;;;;5005894;28;20494;-76
2021/03/06 08:03:34;;;;;;;22.73;14.52;;;154.50;1996.80;;;;;;5001584;28;20033;-77
2021/03/06 08:06:04;;;;;;;26.95;18.88;;;179.20;1971.20;;;;;;5001426;28;20179;-76
2021/03/06 08:08:33;;;;;;;49.30;29.02;;;179.20;1996.80;;;;;;5001180;28;20422;-76
2021/03/06 08:11:12;;;;;;;36.13;24.58;;;179.20;1971.20;;;;;;5002642;28;20030;-75
2021/03/06 08:13:47;;;;;;;36.00;26.85;;;154.50;1996.80;;;;;;5020167;28;20030;-77
2021/03/06 08:16:25;;;;;;;34.42;26.65;;;154.50;1971.20;;;;;;5003681;28;20030;-77
2021/03/06 08:19:21;;;;;;;37.92;20.58;;;154.50;1996.80;;;;;;5007536;28;20045;-77
2021/03/06 08:21:52;;;;;;;19.95;14.48;;;154.40;2073.60;;;;;;5008005;28;20030;-77
2021/03/06 08:24:23;;;;;;;22.55;12.52;;;154.00;2176.00;;;;;;5008277;28;20022;-77
2021/03/06 08:27:04;;;;;;;21.67;14.32;;;154.20;2176.00;;;;;;5004516;28;20025;-79
2021/03/06 08:29:38;;;;;;;29.00;19.42;;;154.50;2227.20;;;;;;5024248;28;20476;-77
2021/03/06 08:32:25;;;;;;;42.13;28.33;;;179.20;2201.60;;;;;;5000438;28;20037;-76
2021/03/06 08:35:21;;;;;;;41.00;25.83;;;179.30;2176.00;;;;;;5001355;28;20097;-76
2021/03/06 08:37:47;;;;;;;46.28;28.92;;;179.30;2048.00;;;;;;4998397;28;20042;-77
2021/03/06 08:40:15;;;;;;;45.88;31.02;;;179.30;1971.20;;;;;;4991380;28;20026;-76
2021/03/06 08:42:55;;;;;;;40.00;27.73;;;179.20;1945.60;;;;;;5006765;28;20037;-76
2021/03/06 08:45:21;;;;;;;43.92;27.63;;;179.20;1971.20;;;;;;4994576;28;20031;-76
2021/03/06 08:47:57;;;;;;;38.42;27.98;;;179.20;1945.60;;;;;;4992971;28;20050;-76
2021/03/06 08:50:24;;;;;;;42.38;25.90;;;179.30;1971.20;;;;;;4994491;28;20130;-77
2021/03/06 08:56:56;;;;;;;52.38;33.92;;;154.50;1920.00;;;;;;5034796;28;20032;-78
2021/03/06 08:59:43;;;;;;;76.43;45.22;;;154.50;1945.60;;;;;;4972923;29;20039;-77
2021/03/06 09:02:21;;;;;;;33.17;23.35;;;179.20;1920.00;;;;;;5008482;28;20026;-78
2021/03/06 09:04:59;;;;;;;32.45;22.50;;;154.50;1945.60;;;;;;5031576;28;20033;-77
2021/03/06 09:07:29;;;;;;;24.83;16.42;;;179.30;1945.60;;;;;;5013989;28;20018;-80
2021/03/06 09:10:22;;;;;;;33.17;21.58;;;179.30;1920.00;;;;;;4998911;28;20088;-78
2021/03/06 09:13:16;;;;;;;31.85;21.92;;;179.20;1920.00;;;;;;5016489;28;20049;-77
2021/03/06 09:16:22;;;;;;;36.42;25.13;;;179.40;1945.60;;;;;;5013032;28;20475;-78
2021/03/06 09:18:53;;;;;;;28.88;18.58;;;179.40;1843.20;;;;;;5022798;28;20034;-78
2021/03/06 09:22:04;;;;;;;17.73;12.90;;;179.40;1817.60;;;;;;5019328;28;20488;-78
2021/03/06 09:24:52;;;;;;;23.92;15.38;;;179.30;1766.40;;;;;;5002122;28;20049;-77
2021/03/06 09:27:18;;;;;;;21.45;13.20;;;179.30;1740.80;;;;;;4999233;28;20018;-76
2021/03/06 09:29:45;;;;;;;27.13;16.42;;;179.30;1664.00;;;;;;5013124;28;20022;-76
2021/03/06 09:32:12;;;;;;;40.22;24.67;;;179.30;1664.00;;;;;;5020752;28;20088;-77
2021/03/06 09:34:42;;;;;;;34.97;23.08;;;179.20;1689.60;;;;;;5014662;28;20085;-77
2021/03/06 09:37:19;;;;;;;43.67;27.70;;;179.30;1715.20;;;;;;5003604;28;20019;-79
2021/03/06 10:11:38;;;;;;;28.85;17.63;;;154.40;1766.40;;;;;;4998851;28;20040;-76
2021/03/06 10:14:07;;;;;;;22.02;13.00;;;154.40;1766.40;;;;;;4977088;28;20023;-78
2021/03/06 10:16:53;;;;;;;17.45;12.48;;;154.50;1740.80;;;;;;4990821;28;20027;-77
2021/03/06 10:19:21;;;;;;;27.90;18.75;;;154.50;1715.20;;;;;;4973040;28;20098;-75
2021/03/06 10:22:04;;;;;;;27.33;19.65;;;179.20;1715.20;;;;;;4989206;28;20062;-77
2021/03/06 10:24:53;;;;;;;25.70;17.83;;;179.20;1638.40;;;;;;4990417;28;20058;-78
2021/03/06 10:27:38;;;;;;;30.30;17.27;;;179.30;1612.80;;;;;;4991922;28;20035;-77
2021/03/06 10:30:23;;;;;;;28.73;19.42;;;154.50;1587.20;;;;;;4991949;28;20026;-77
2021/03/06 10:32:57;;;;;;;37.58;26.15;;;179.20;1587.20;;;;;;4996787;28;20026;-76
2021/03/06 10:35:49;;;;;;;32.28;20.42;;;179.40;1587.20;;;;;;4971665;28;20027;-76
2021/03/06 10:38:29;;;;;;;35.72;22.52;;;179.70;1561.60;;;;;;4972048;28;20027;-76
2021/03/06 10:40:59;;;;;;;33.88;22.67;;;179.80;1561.60;;;;;;4991649;28;20027;-75
2021/03/06 10:43:30;;;;;;;21.95;15.40;;;179.70;1561.60;;;;;;4989817;28;20026;-76
2021/03/06 10:46:25;;;;;;;31.02;18.48;;;179.70;1587.20;;;;;;4985275;28;20030;-76
2021/03/06 10:48:59;;;;;;;31.88;20.10;;;179.70;1587.20;;;;;;4985159;28;20042;-75
2021/03/06 10:51:51;;;;;;;24.98;18.02;;;179.50;1561.60;;;;;;4983717;28;20448;-76
2021/03/06 10:54:19;;;;;;;37.83;25.20;;;179.50;1561.60;;;;;;4969019;28;20030;-76
2021/03/06 10:56:45;;;;;;;26.02;17.98;;;179.50;1536.00;;;;;;4963208;28;20129;-75
2021/03/06 10:59:11;;;;;;;25.25;19.35;;;179.40;1536.00;;;;;;4965425;28;20069;-75
2021/03/06 11:01:53;;;;;;;26.10;18.67;;;179.50;1536.00;;;;;;4965566;28;20042;-77
2021/03/06 11:04:49;;;;;;;22.08;14.57;;;179.50;1536.00;;;;;;4976405;28;20023;-77
2021/03/06 11:07:34;;;;;;;18.63;12.73;;;179.40;1536.00;;;;;;4976189;28;20403;-77
2021/03/06 11:10:40;;;;;;;55.75;37.28;;;179.40;1561.60;;;;;;4978777;28;20027;-78
2021/03/06 11:13:06;;;;;;;32.67;17.23;;;179.40;1638.40;;;;;;4978341;28;20095;-76
2021/03/06 11:15:33;;;;;;;46.30;24.63;;;179.30;1664.00;;;;;;4992011;28;20086;-77
2021/03/06 11:18:05;;;;;;;25.95;18.90;;;154.10;1689.60;;;;;;4991562;28;20062;-77
2021/03/06 11:20:35;;;;;;;22.33;16.25;;;154.50;1740.80;;;;;;4992255;28;20045;-79
2021/03/06 11:23:03;;;;;;;27.60;19.73;;;154.20;1766.40;;;;;;4990260;28;20034;-77
2021/03/06 11:26:15;;;;;;;31.05;21.88;;;154.20;1792.00;;;;;;4997476;28;20013;-78
2021/03/06 11:28:57;;;;;;;42.75;28.73;;;154.50;1766.40;;;;;;4998851;28;20038;-79
2021/03/06 11:31:24;;;;;;;40.88;27.83;;;179.30;1766.40;;;;;;4993803;28;20024;-77
2021/03/06 11:33:51;;;;;;;41.92;29.02;;;179.20;1740.80;;;;;;5010863;28;20053;-76
2021/03/06 11:36:17;;;;;;;32.03;23.58;;;179.30;1740.80;;;;;;4989943;28;20026;-75
2021/03/06 11:38:43;;;;;;;34.28;22.83;;;179.20;1740.80;;;;;;5006195;28;20090;-77
2021/03/06 11:41:10;;;;;;;38.53;23.25;;;179.30;1740.80;;;;;;4986761;28;20026;-77
2021/03/06 12:05:08;;;;;;;39.00;27.65;;;179.40;1638.40;;;;;;5033488;23;20088;-77
2021/03/06 12:11:41;;;;;;;42.30;26.42;;;179.40;1638.40;;;;;;5546709;23;20141;-79
2021/03/06 12:17:11;;;;;;;49.63;27.67;;;179.60;1612.80;;;;;;5237139;22;20136;-76
2021/03/06 12:19:38;;;;;;;45.42;26.55;;;179.60;1612.80;;;;;;5009822;28;20471;-77
2021/03/06 12:22:04;;;;;;;62.42;35.53;;;179.70;1587.20;;;;;;5009059;28;20025;-76
2021/03/06 12:24:30;;;;;;;33.13;21.48;;;179.70;1561.60;;;;;;5010848;28;20036;-75
2021/03/06 12:26:59;;;;;;;35.03;22.65;;;179.70;1561.60;;;;;;5006651;28;20034;-78
2021/03/06 12:29:25;;;;;;;53.88;34.53;;;179.80;1561.60;;;;;;5010726;28;20052;-77
2021/03/06 12:31:51;;;;;;;36.13;24.63;;;179.80;1561.60;;;;;;5010087;28;20026;-77
2021/03/06 12:34:19;;;;;;;40.60;30.52;;;179.80;1561.60;;;;;;5010064;28;20094;-77
2021/03/06 12:36:49;;;;;;;41.53;29.10;;;179.70;1561.60;;;;;;5026545;28;20041;-79
2021/03/06 12:39:21;;;;;;;43.13;26.10;;;179.80;1587.20;;;;;;4995857;28;20041;-78
2021/03/06 12:41:54;;;;;;;48.40;33.15;;;179.80;1612.80;;;;;;5012084;28;20109;-78
2021/03/06 12:44:22;;;;;;;58.25;34.40;;;180.00;1587.20;;;;;;5008761;28;20042;-79
2021/03/06 12:46:48;;;;;;;46.20;31.13;;;204.90;1561.60;;;;;;5008549;28;20084;-78
2021/03/06 12:49:15;;;;;;;31.83;23.00;;;180.10;1536.00;;;;;;5007980;28;20026;-78
2021/03/06 12:51:41;;;;;;;47.78;32.03;;;179.90;1510.40;;;;;;4992633;28;20029;-78
2021/03/06 12:54:08;;;;;;;37.75;22.45;;;179.80;1510.40;;;;;;5027011;28;20053;-77
2021/03/06 12:56:34;;;;;;;67.72;43.28;;;179.70;1536.00;;;;;;5008739;28;20030;-76
2021/03/06 12:59:01;;;;;;;71.20;42.72;;;179.80;1561.60;;;;;;5008086;28;20026;-77
2021/03/06 13:01:26;;;;;;;34.30;23.08;;;180.10;1536.00;;;;;;5007534;28;20080;-76
2021/03/06 13:03:52;;;;;;;33.05;19.75;;;179.60;1484.80;;;;;;5008920;28;20030;-76
2021/03/06 13:06:19;;;;;;;44.13;30.88;;;179.50;1536.00;;;;;;5009179;28;20036;-77
2021/03/06 13:08:44;;;;;;;42.53;31.15;;;179.40;1561.60;;;;;;5009757;28;20037;-77
2021/03/06 13:11:11;;;;;;;35.92;23.83;;;179.50;1536.00;;;;;;5009974;28;20026;-77
2021/03/06 13:13:37;;;;;;;36.50;26.50;;;179.40;1561.60;;;;;;5010631;28;20090;-77
2021/03/06 13:16:04;;;;;;;42.45;30.90;;;179.50;1561.60;;;;;;5011461;28;20483;-77
2021/03/06 13:18:30;;;;;;;39.85;27.42;;;179.60;1561.60;;;;;;5010167;28;20057;-77
2021/03/06 13:20:56;;;;;;;55.83;35.90;;;179.90;1510.40;;;;;;5010364;28;20098;-77
2021/03/06 13:24:19;;;;;;;59.17;38.30;;;179.30;1510.40;;;;;;5013017;28;20033;-78
2021/03/06 13:27:18;;;;;;;40.88;28.85;;;179.60;1510.40;;;;;;4973128;28;20029;-78
2021/03/06 13:29:55;;;;;;;37.17;25.50;;;179.50;1510.40;;;;;;4968897;28;20044;-77
2021/03/06 13:33:13;;;;;;;42.35;30.00;;;179.40;1459.20;;;;;;5016124;28;20065;-78
2021/03/06 13:36:26;;;;;;;43.70;29.33;;;179.50;1484.80;;;;;;5004995;28;20041;-78
2021/03/06 13:39:49;;;;;;;;;;;179.60;1484.80;;;;;;4990560;28;20613;-78
2021/03/06 13:43:37;;;;;;;29.98;19.88;;;179.70;1484.80;;;;;;5009911;28;20379;-78
2021/03/06 13:49:58;;;;;;;26.27;17.38;;;179.60;1459.20;;;;;;4913826;29;20035;-78
2021/03/06 13:52:28;;;;;;;27.35;17.27;;;179.60;1459.20;;;;;;4913383;29;20124;-78
2021/03/06 13:54:56;;;;;;;32.42;21.02;;;179.70;1459.20;;;;;;4913403;29;20033;-77
2021/03/06 13:57:25;;;;;;;25.73;17.25;;;179.70;1459.20;;;;;;4932810;29;20045;-78
2021/03/06 13:59:51;;;;;;;60.25;37.92;;;179.70;1408.00;;;;;;4990555;28;20039;-77
2021/03/06 14:02:17;;;;;;;39.30;25.23;;;179.70;1408.00;;;;;;4993900;28;20099;-77
2021/03/06 14:04:50;;;;;;;34.80;22.40;;;179.70;1382.40;;;;;;4978121;28;20039;-78
2021/03/06 14:07:17;;;;;;;;;;;179.80;1408.00;;;;;;4973695;28;20034;-78
2021/03/06 14:09:43;;;;;;;27.83;17.77;;;179.80;1408.00;;;;;;5015104;28;19905;-78
2021/03/06 14:12:11;;;;;;;19.75;15.07;;;179.70;1408.00;;;;;;4993188;28;20480;-78
2021/03/06 14:14:37;;;;;;;27.05;18.45;;;179.70;1382.40;;;;;;4993353;28;20030;-78
2021/03/06 14:17:03;;;;;;;28.20;18.55;;;179.70;1382.40;;;;;;4992519;28;20106;-79
2021/03/06 14:19:31;;;;;;;42.05;36.40;;;179.70;1433.60;;;;;;5010000;28;20058;-77
2021/03/06 14:21:59;;;;;;;27.58;19.88;;;179.70;1408.00;;;;;;4987906;28;20034;-78
2021/03/06 14:24:25;;;;;;;25.05;20.00;;;179.80;1408.00;;;;;;4988833;28;20030;-79
2021/03/06 14:26:51;;;;;;;37.30;26.00;;;179.90;1408.00;;;;;;4989807;28;20025;-78
2021/03/06 14:29:18;;;;;;;26.65;19.75;;;179.90;1408.00;;;;;;4989646;28;20109;-78
2021/03/06 14:31:44;;;;;;;34.42;24.30;;;179.90;1433.60;;;;;;4990585;28;20113;-79
2021/03/06 14:34:11;;;;;;;31.52;21.92;;;179.90;1408.00;;;;;;4989654;28;20023;-79
2021/03/06 14:36:39;;;;;;;25.02;17.67;;;179.80;1408.00;;;;;;5006584;28;20026;-79
2021/03/06 14:39:15;;;;;;;29.83;20.67;;;179.90;1433.60;;;;;;5005348;28;20057;-80
2021/03/06 14:41:41;;;;;;;51.92;32.60;;;179.80;1433.60;;;;;;5005011;28;20019;-80
2021/03/06 14:44:08;;;;;;;51.70;31.70;;;179.70;1433.60;;;;;;5005397;28;20535;-79
2021/03/06 14:46:36;;;;;;;31.40;20.00;;;179.70;1433.60;;;;;;5005533;28;20030;-78
2021/03/06 14:49:03;;;;;;;40.28;25.55;;;179.60;1459.20;;;;;;5006222;28;20034;-78
2021/03/06 14:51:29;;;;;;;40.08;31.65;;;179.70;1408.00;;;;;;5007473;28;20061;-78
2021/03/06 14:53:56;;;;;;;40.92;25.45;;;179.40;1408.00;;;;;;5003582;28;20031;-79
2021/03/06 14:56:22;;;;;;;71.97;48.47;;;179.40;1408.00;;;;;;5004687;28;20033;-81
2021/03/06 14:58:48;;;;;;;33.83;22.20;;;179.30;1408.00;;;;;;5003188;28;20030;-79
2021/03/06 15:01:15;;;;;;;42.92;25.92;;;179.30;1382.40;;;;;;5007755;28;20027;-78
2021/03/06 15:03:41;;;;;;;30.90;19.17;;;179.40;1408.00;;;;;;5006452;28;20090;-78
2021/03/06 15:06:07;;;;;;;30.88;22.85;;;179.50;1382.40;;;;;;5007578;28;20061;-78
2021/03/06 15:08:33;;;;;;;37.65;24.77;;;179.20;1408.00;;;;;;5007847;28;20038;-79
2021/03/06 15:10:59;;;;;;;41.97;28.58;;;179.40;1433.60;;;;;;5006940;28;20026;-79
2021/03/06 15:13:25;;;;;;;29.80;19.30;;;179.60;1408.00;;;;;;5006565;28;20058;-79
2021/03/06 15:15:51;;;;;;;35.20;25.17;;;179.40;1408.00;;;;;;5006341;28;20030;-78
2021/03/06 15:18:17;;;;;;;33.00;25.20;;;179.40;1382.40;;;;;;5006708;28;20057;-78
2021/03/06 15:20:44;;;;;;;31.98;20.40;;;179.40;1382.40;;;;;;5007751;28;20026;-78
2021/03/06 15:23:15;;;;;;;46.30;27.05;;;179.30;1382.40;;;;;;5004663;28;20372;-79
2021/03/06 15:25:42;;;;;;;45.70;28.17;;;179.30;1382.40;;;;;;4991358;28;20033;-78
2021/03/06 15:28:08;;;;;;;97.20;57.60;;;179.40;1408.00;;;;;;4989414;28;20022;-79
2021/03/06 15:30:34;;;;;;;69.25;43.20;;;179.40;1408.00;;;;;;4989662;28;20033;-78
2021/03/06 15:33:21;;;;;;;74.15;46.35;;;179.40;1408.00;;;;;;4990984;28;20034;-80
2021/03/06 15:35:47;;;;;;;55.40;36.97;;;179.30;1382.40;;;;;;4991869;28;20026;-78
2021/03/06 15:38:13;;;;;;;51.50;34.17;;;154.50;1382.40;;;;;;4992322;28;20032;-78
2021/03/06 15:40:39;;;;;;;45.08;28.17;;;154.50;1382.40;;;;;;5006415;28;20022;-78
2021/03/06 15:43:05;;;;;;;31.88;19.30;;;154.50;1408.00;;;;;;4990195;28;20026;-78
2021/03/06 15:45:32;;;;;;;35.55;20.35;;;154.50;1356.80;;;;;;4989561;28;20037;-78
2021/03/06 15:47:59;;;;;;;39.60;23.05;;;154.50;1356.80;;;;;;4991481;28;20030;-78
2021/03/06 15:50:25;;;;;;;46.35;28.35;;;154.50;1356.80;;;;;;4990834;28;20042;-78
2021/03/06 15:52:52;;;;;;;30.70;19.08;;;154.50;1356.80;;;;;;4990760;28;20022;-78
2021/03/06 15:55:18;;;;;;;27.23;16.33;;;154.10;1331.20;;;;;;4991487;28;20053;-79
2021/03/06 15:57:44;;;;;;;40.17;21.48;;;154.40;1331.20;;;;;;4990209;28;20560;-78
2021/03/06 16:00:12;;;;;;;38.55;20.92;;;179.70;1356.80;;;;;;4989888;28;20086;-78
2021/03/06 16:02:38;;;;;;;41.70;23.98;;;154.40;1356.80;;;;;;4990984;28;20023;-78
2021/03/06 16:05:05;;;;;;;47.22;24.75;;;154.40;1382.40;;;;;;5005867;28;20018;-78
2021/03/06 16:07:31;;;;;;;53.85;23.60;;;154.40;1382.40;;;;;;4990302;28;20030;-79
2021/03/06 16:10:10;;;;;;;43.22;19.67;;;154.40;1382.40;;;;;;4992141;28;20030;-79
2021/03/06 16:12:38;;;;;;;29.92;18.20;;;154.30;1433.60;;;;;;4995056;28;20018;-78
2021/03/06 16:15:05;;;;;;;30.70;17.55;;;154.30;1408.00;;;;;;5009280;28;20032;-78
2021/03/06 16:17:31;;;;;;;24.60;15.50;;;154.20;1408.00;;;;;;4996773;28;20068;-78
2021/03/06 16:19:57;;;;;;;48.17;27.63;;;154.20;1408.00;;;;;;5007278;28;20542;-78
2021/03/06 16:22:22;;;;;;;42.75;25.70;;;154.10;1408.00;;;;;;5003358;28;20088;-78
2021/03/06 16:24:48;;;;;;;40.75;25.30;;;154.10;1408.00;;;;;;5009652;28;20030;-79
2021/03/06 16:27:15;;;;;;;37.50;24.35;;;154.20;1408.00;;;;;;5005439;28;20029;-79
2021/03/06 16:29:40;;;;;;;51.22;30.88;;;154.10;1433.60;;;;;;5018771;28;20034;-79
2021/03/06 16:32:13;;;;;;;49.33;31.10;;;154.30;1433.60;;;;;;5006739;28;20033;-79
2021/03/06 16:34:39;;;;;;;40.15;25.00;;;154.10;1433.60;;;;;;5005848;28;20036;-78
2021/03/06 16:37:12;;;;;;;38.80;24.70;;;154.20;1459.20;;;;;;5007372;28;20102;-78
2021/03/06 16:39:38;;;;;;;47.50;33.17;;;154.10;1433.60;;;;;;5008368;28;20027;-78
2021/03/06 16:42:04;;;;;;;48.85;28.40;;;154.20;1408.00;;;;;;5005763;28;20404;-79
2021/03/06 16:44:32;;;;;;;40.05;22.73;;;154.00;1408.00;;;;;;5024747;28;20026;-78
2021/03/06 16:46:59;;;;;;;39.63;23.17;;;153.90;1433.60;;;;;;5026408;28;20022;-78
2021/03/06 16:49:25;;;;;;;47.70;29.50;;;153.80;1408.00;;;;;;5025409;28;20089;-78
2021/03/06 16:51:50;;;;;;;51.30;33.63;;;153.80;1459.20;;;;;;5026498;28;20072;-78
2021/03/06 16:54:16;;;;;;;55.38;35.88;;;153.80;1433.60;;;;;;5024640;28;20029;-78
2021/03/06 16:56:42;;;;;;;67.07;38.55;;;153.80;1433.60;;;;;;5026010;28;20039;-77
2021/03/06 16:59:08;;;;;;;56.22;36.47;;;153.60;1433.60;;;;;;5028357;28;20068;-79
2021/03/06 17:01:35;;;;;;;59.85;37.38;;;153.60;1408.00;;;;;;5029665;28;20030;-78
2021/03/06 17:04:03;;;;;;;53.58;34.50;;;153.60;1433.60;;;;;;5026238;28;20019;-78
2021/03/06 17:06:29;;;;;;;50.05;30.02;;;128.90;1433.60;;;;;;5030844;28;20057;-79
2021/03/06 17:08:55;;;;;;;56.70;34.65;;;128.90;1459.20;;;;;;5029745;28;20030;-78
2021/03/06 17:23:46;;;;;;;53.95;33.08;;;128.60;1510.40;;;;;;5487055;22;20049;-80
2021/03/06 17:26:13;;;;;;;79.10;45.80;;;128.60;1510.40;;;;;;5018343;28;20054;-78
2021/03/06 17:28:39;;;;;;;86.25;46.63;;;128.70;1510.40;;;;;;5015703;28;20043;-77
2021/03/06 17:42:23;;;;;;;49.33;31.58;;;103.10;1561.60;;;;;;5032337;28;20042;-76
2021/03/06 17:48:48;;;;;;;53.72;34.85;;;128.20;1587.20;;;;;;4933258;29;20121;-79
2021/03/06 17:55:44;;;;;;;68.00;42.28;;;128.10;1638.40;;;;;;4901429;29;20029;-79
2021/03/06 18:04:37;;;;;;;58.92;39.00;;;128.00;1638.40;;;;;;5594366;23;20069;-78
2021/03/06 18:07:34;;;;;;;77.53;49.33;;;128.20;1638.40;;;;;;5015656;28;20007;-77
2021/03/06 18:14:10;;;;;;;96.57;55.92;;;128.10;1638.40;;;;;;4994853;28;20061;-78
2021/03/06 18:23:11;;;;;;;91.32;56.65;;;128.00;1664.00;;;;;;5002255;28;20025;-78
2021/03/06 18:25:40;;;;;;;37.78;24.08;;;103.30;1638.40;;;;;;5019552;28;20046;-79
2021/03/06 18:28:07;;;;;;;47.67;31.55;;;103.00;1664.00;;;;;;5005769;28;20018;-78
2021/03/06 18:31:07;;;;;;;89.75;52.55;;;103.00;1689.60;;;;;;5026031;28;20034;-79
2021/03/06 18:33:40;;;;;;;56.97;35.45;;;103.00;1689.60;;;;;;5018812;28;20044;-78
2021/03/06 18:36:11;;;;;;;47.92;30.83;;;103.00;1689.60;;;;;;4993377;28;20026;-78
2021/03/06 18:39:12;;;;;;;44.85;28.23;;;103.00;1689.60;;;;;;5023719;28;20034;-78
2021/03/06 18:41:40;;;;;;;45.95;30.35;;;103.00;1664.00;;;;;;4963627;28;20031;-78
2021/03/06 18:44:08;;;;;;;49.50;31.08;;;103.00;1689.60;;;;;;4964959;28;20043;-79
2021/03/06 18:46:36;;;;;;;46.20;30.20;;;103.00;1689.60;;;;;;4950976;28;20036;-77
2021/03/06 18:49:05;;;;;;;44.03;28.35;;;103.00;1689.60;;;;;;4963490;28;20035;-78
2021/03/06 18:51:32;;;;;;;48.72;30.27;;;103.00;1689.60;;;;;;4930106;29;20031;-78
2021/03/06 18:53:58;;;;;;;42.80;27.27;;;103.00;1689.60;;;;;;4947321;29;20489;-79
2021/03/06 18:56:26;;;;;;;46.63;30.40;;;102.90;1689.60;;;;;;4939305;29;20042;-78
2021/03/06 18:58:51;;;;;;;48.55;28.23;;;102.90;1715.20;;;;;;4946678;29;20525;-78
2021/03/06 19:01:17;;;;;;;44.17;29.73;;;102.80;1715.20;;;;;;4947901;29;20028;-77
2021/03/06 19:03:44;;;;;;;53.33;33.35;;;102.70;1740.80;;;;;;4948757;29;20048;-79
2021/03/06 19:06:16;;;;;;;59.67;34.70;;;102.80;1715.20;;;;;;4950066;29;20098;-80
2021/03/06 19:08:42;;;;;;;58.30;34.50;;;102.70;1715.20;;;;;;4966152;29;20030;-78
2021/03/06 19:11:08;;;;;;;63.35;37.97;;;102.70;1740.80;;;;;;4949876;29;20031;-79
2021/03/06 19:13:37;;;;;;;47.63;29.08;;;102.60;1740.80;;;;;;4950399;29;20032;-79
2021/03/06 19:16:05;;;;;;;54.25;30.58;;;102.70;1740.80;;;;;;4952108;29;20019;-79
2021/03/06 19:18:31;;;;;;;43.00;27.40;;;102.90;1715.20;;;;;;4952335;28;20046;-79